sensor_id;sensor_type;location;lat;lon;timestamp;temperature;humidity
53776;DHT22;44276;49.534;6.378;2023-12-14T00:02:27;7.40;99.90
53776;DHT22;44276;49.534;6.378;2023-12-14T00:04:55;7.40;99.90
53776;DHT22;44276;49.534;6.378;2023-12-14T00:07:23;7.40;99.90
53776;DHT22;44276;49.534;6.378;2023-12-14T00:09:51;7.40;99.90
53776;DHT22;44276;49.534;6.378;2023-12-14T00:12:19;7.40;99.90
53776;DHT22;44276;49.534;6.378;2023-12-14T00:14:48;7.40;99.90
53776;DHT22;44276;49.534;6.378;2023-12-14T00:17:16;7.40;99.90
53776;DHT22;44276;49.534;6.378;2023-12-14T00:19:46;7.40;99.90
53776;DHT22;44276;49.534;6.378;2023-12-14T00:22:14;7.30;99.90
53776;DHT22;44276;49.534;6.378;2023-12-14T00:24:42;7.40;99.90
53776;DHT22;44276;49.534;6.378;2023-12-14T00:27:10;7.30;99.90
53776;DHT22;44276;49.534;6.378;2023-12-14T00:29:39;7.30;99.90
53776;DHT22;44276;49.534;6.378;2023-12-14T00:32:07;7.30;99.90
53776;DHT22;44276;49.534;6.378;2023-12-14T00:34:35;7.30;99.90
53776;DHT22;44276;49.534;6.378;2023-12-14T00:37:05;7.30;99.90
53776;DHT22;44276;49.534;6.378;2023-12-14T00:39:33;7.30;99.90
53776;DHT22;44276;49.534;6.378;2023-12-14T00:42:01;7.30;99.90
53776;DHT22;44276;49.534;6.378;2023-12-14T00:44:29;7.30;99.90
53776;DHT22;44276;49.534;6.378;2023-12-14T00:46:57;7.30;99.90
53776;DHT22;44276;49.534;6.378;2023-12-14T00:49:27;7.20;99.90
53776;DHT22;44276;49.534;6.378;2023-12-14T00:51:55;7.20;99.90
53776;DHT22;44276;49.534;6.378;2023-12-14T00:54:26;7.20;99.90
53776;DHT22;44276;49.534;6.378;2023-12-14T00:56:54;7.20;99.90
53776;DHT22;44276;49.534;6.378;2023-12-14T00:59:23;7.30;99.90
53776;DHT22;44276;49.534;6.378;2023-12-14T01:01:51;7.30;99.90
53776;DHT22;44276;49.534;6.378;2023-12-14T01:04:19;7.30;99.90
53776;DHT22;44276;49.534;6.378;2023-12-14T01:06:47;7.20;99.90
53776;DHT22;44276;49.534;6.378;2023-12-14T01:09:16;7.30;99.90
53776;DHT22;44276;49.534;6.378;2023-12-14T01:11:44;7.30;99.90
53776;DHT22;44276;49.534;6.378;2023-12-14T01:14:13;7.30;99.90
53776;DHT22;44276;49.534;6.378;2023-12-14T01:16:41;7.30;99.90
53776;DHT22;44276;49.534;6.378;2023-12-14T01:19:09;7.30;99.90
53776;DHT22;44276;49.534;6.378;2023-12-14T01:21:38;7.30;99.90
53776;DHT22;44276;49.534;6.378;2023-12-14T01:24:07;7.30;99.90
53776;DHT22;44276;49.534;6.378;2023-12-14T01:26:35;7.30;99.90
53776;DHT22;44276;49.534;6.378;2023-12-14T01:29:04;7.30;99.90
53776;DHT22;44276;49.534;6.378;2023-12-14T01:31:32;7.30;99.90
53776;DHT22;44276;49.534;6.378;2023-12-14T01:34:00;7.30;99.90
53776;DHT22;44276;49.534;6.378;2023-12-14T01:36:29;7.40;99.90
53776;DHT22;44276;49.534;6.378;2023-12-14T01:38:57;7.40;99.90
53776;DHT22;44276;49.534;6.378;2023-12-14T01:41:25;7.40;99.90
53776;DHT22;44276;49.534;6.378;2023-12-14T01:43:54;7.30;99.90
53776;DHT22;44276;49.534;6.378;2023-12-14T01:46:23;7.30;99.90
53776;DHT22;44276;49.534;6.378;2023-12-14T01:48:51;7.40;99.90
53776;DHT22;44276;49.534;6.378;2023-12-14T01:51:20;7.40;99.90
53776;DHT22;44276;49.534;6.378;2023-12-14T01:53:48;7.40;99.90
53776;DHT22;44276;49.534;6.378;2023-12-14T01:56:16;7.30;99.90
53776;DHT22;44276;49.534;6.378;2023-12-14T01:58:45;7.30;99.90
53776;DHT22;44276;49.534;6.378;2023-12-14T02:01:18;7.20;99.90
53776;DHT22;44276;49.534;6.378;2023-12-14T02:03:56;7.20;99.90
53776;DHT22;44276;49.534;6.378;2023-12-14T02:06:25;7.20;99.90
53776;DHT22;44276;49.534;6.378;2023-12-14T02:08:53;7.20;99.90
53776;DHT22;44276;49.534;6.378;2023-12-14T02:11:21;7.20;99.90
53776;DHT22;44276;49.534;6.378;2023-12-14T02:13:49;7.20;99.90
53776;DHT22;44276;49.534;6.378;2023-12-14T02:16:18;7.20;99.90
53776;DHT22;44276;49.534;6.378;2023-12-14T02:18:47;7.30;99.90
53776;DHT22;44276;49.534;6.378;2023-12-14T02:21:16;7.20;99.90
53776;DHT22;44276;49.534;6.378;2023-12-14T02:23:46;7.20;99.90
53776;DHT22;44276;49.534;6.378;2023-12-14T02:26:15;7.10;99.90
53776;DHT22;44276;49.534;6.378;2023-12-14T02:28:43;7.10;99.90
53776;DHT22;44276;49.534;6.378;2023-12-14T02:31:11;7.00;99.90
53776;DHT22;44276;49.534;6.378;2023-12-14T02:33:40;7.00;99.90
53776;DHT22;44276;49.534;6.378;2023-12-14T02:36:08;6.90;99.90
53776;DHT22;44276;49.534;6.378;2023-12-14T02:38:37;6.90;99.90
53776;DHT22;44276;49.534;6.378;2023-12-14T02:41:07;6.90;99.90
53776;DHT22;44276;49.534;6.378;2023-12-14T02:43:35;6.90;99.90
53776;DHT22;44276;49.534;6.378;2023-12-14T02:46:05;6.90;99.90
53776;DHT22;44276;49.534;6.378;2023-12-14T02:48:33;6.90;99.90
53776;DHT22;44276;49.534;6.378;2023-12-14T02:51:02;6.80;99.90
53776;DHT22;44276;49.534;6.378;2023-12-14T02:53:30;6.80;99.90
53776;DHT22;44276;49.534;6.378;2023-12-14T02:56:01;6.70;99.90
53776;DHT22;44276;49.534;6.378;2023-12-14T02:58:31;6.60;99.90
53776;DHT22;44276;49.534;6.378;2023-12-14T03:00:59;6.60;99.90
53776;DHT22;44276;49.534;6.378;2023-12-14T03:03:27;6.60;99.90
53776;DHT22;44276;49.534;6.378;2023-12-14T03:05:56;6.60;99.90
53776;DHT22;44276;49.534;6.378;2023-12-14T03:08:24;6.50;99.90
53776;DHT22;44276;49.534;6.378;2023-12-14T03:10:52;6.50;99.90
53776;DHT22;44276;49.534;6.378;2023-12-14T03:13:20;6.50;99.90
53776;DHT22;44276;49.534;6.378;2023-12-14T03:15:50;6.50;99.90
53776;DHT22;44276;49.534;6.378;2023-12-14T03:18:18;6.60;99.90
53776;DHT22;44276;49.534;6.378;2023-12-14T03:20:47;6.60;99.90
53776;DHT22;44276;49.534;6.378;2023-12-14T03:23:15;6.50;99.90
53776;DHT22;44276;49.534;6.378;2023-12-14T03:25:43;6.40;99.90
53776;DHT22;44276;49.534;6.378;2023-12-14T03:28:12;6.40;99.90
53776;DHT22;44276;49.534;6.378;2023-12-14T03:30:40;6.40;99.90
53776;DHT22;44276;49.534;6.378;2023-12-14T03:33:10;6.30;99.90
53776;DHT22;44276;49.534;6.378;2023-12-14T03:35:38;6.20;99.90
53776;DHT22;44276;49.534;6.378;2023-12-14T03:38:08;6.00;99.90
53776;DHT22;44276;49.534;6.378;2023-12-14T03:40:37;5.80;99.90
53776;DHT22;44276;49.534;6.378;2023-12-14T03:43:05;5.60;99.90
53776;DHT22;44276;49.534;6.378;2023-12-14T03:45:33;5.50;99.90
53776;DHT22;44276;49.534;6.378;2023-12-14T03:48:01;5.30;99.90
53776;DHT22;44276;49.534;6.378;2023-12-14T03:50:31;5.30;99.90
53776;DHT22;44276;49.534;6.378;2023-12-14T03:53:00;5.00;99.90
53776;DHT22;44276;49.534;6.378;2023-12-14T03:55:28;4.90;99.90
53776;DHT22;44276;49.534;6.378;2023-12-14T03:57:56;4.80;99.90
53776;DHT22;44276;49.534;6.378;2023-12-14T04:00:25;4.70;99.90
53776;DHT22;44276;49.534;6.378;2023-12-14T04:02:53;4.50;99.90
53776;DHT22;44276;49.534;6.378;2023-12-14T04:05:22;4.50;99.90
53776;DHT22;44276;49.534;6.378;2023-12-14T04:07:52;4.60;99.90
53776;DHT22;44276;49.534;6.378;2023-12-14T04:10:20;4.70;99.90
53776;DHT22;44276;49.534;6.378;2023-12-14T04:12:48;4.70;99.90
53776;DHT22;44276;49.534;6.378;2023-12-14T04:15:16;4.70;99.90
53776;DHT22;44276;49.534;6.378;2023-12-14T04:17:45;4.70;99.90
53776;DHT22;44276;49.534;6.378;2023-12-14T04:20:13;4.70;99.90
53776;DHT22;44276;49.534;6.378;2023-12-14T04:22:43;4.70;99.90
53776;DHT22;44276;49.534;6.378;2023-12-14T04:25:12;4.80;99.90
53776;DHT22;44276;49.534;6.378;2023-12-14T04:27:41;4.70;99.90
53776;DHT22;44276;49.534;6.378;2023-12-14T04:30:09;4.80;99.90
53776;DHT22;44276;49.534;6.378;2023-12-14T04:32:38;4.80;99.90
53776;DHT22;44276;49.534;6.378;2023-12-14T04:35:08;4.80;99.90
53776;DHT22;44276;49.534;6.378;2023-12-14T04:37:36;4.70;99.90
53776;DHT22;44276;49.534;6.378;2023-12-14T04:40:05;4.60;99.90
53776;DHT22;44276;49.534;6.378;2023-12-14T04:42:36;4.50;99.90
53776;DHT22;44276;49.534;6.378;2023-12-14T04:45:06;4.40;99.90
53776;DHT22;44276;49.534;6.378;2023-12-14T04:47:35;4.40;99.90
53776;DHT22;44276;49.534;6.378;2023-12-14T04:50:05;4.40;99.90
53776;DHT22;44276;49.534;6.378;2023-12-14T04:52:34;4.50;99.90
53776;DHT22;44276;49.534;6.378;2023-12-14T04:55:02;4.50;99.90
53776;DHT22;44276;49.534;6.378;2023-12-14T04:57:31;4.60;99.90
53776;DHT22;44276;49.534;6.378;2023-12-14T05:00:00;4.60;99.90
53776;DHT22;44276;49.534;6.378;2023-12-14T05:02:30;4.70;99.90
53776;DHT22;44276;49.534;6.378;2023-12-14T05:05:00;4.80;99.90
53776;DHT22;44276;49.534;6.378;2023-12-14T05:07:29;4.80;99.90
53776;DHT22;44276;49.534;6.378;2023-12-14T05:09:57;4.80;99.90
53776;DHT22;44276;49.534;6.378;2023-12-14T05:12:25;4.70;99.90
53776;DHT22;44276;49.534;6.378;2023-12-14T05:14:55;4.60;99.90
53776;DHT22;44276;49.534;6.378;2023-12-14T05:17:25;4.60;99.90
53776;DHT22;44276;49.534;6.378;2023-12-14T05:19:53;4.60;99.90
53776;DHT22;44276;49.534;6.378;2023-12-14T05:22:21;4.60;99.90
53776;DHT22;44276;49.534;6.378;2023-12-14T05:24:49;4.60;99.90
53776;DHT22;44276;49.534;6.378;2023-12-14T05:27:18;4.70;99.90
53776;DHT22;44276;49.534;6.378;2023-12-14T05:29:46;4.70;99.90
53776;DHT22;44276;49.534;6.378;2023-12-14T05:32:14;4.70;99.90
53776;DHT22;44276;49.534;6.378;2023-12-14T05:34:44;4.80;99.90
53776;DHT22;44276;49.534;6.378;2023-12-14T05:37:12;4.80;99.90
53776;DHT22;44276;49.534;6.378;2023-12-14T05:39:41;4.90;99.90
53776;DHT22;44276;49.534;6.378;2023-12-14T05:42:12;4.90;99.90
53776;DHT22;44276;49.534;6.378;2023-12-14T05:44:44;5.00;99.90
53776;DHT22;44276;49.534;6.378;2023-12-14T05:47:12;5.00;99.90
53776;DHT22;44276;49.534;6.378;2023-12-14T05:49:41;5.00;99.90
53776;DHT22;44276;49.534;6.378;2023-12-14T05:52:11;5.00;99.90
53776;DHT22;44276;49.534;6.378;2023-12-14T05:54:39;5.10;99.90
53776;DHT22;44276;49.534;6.378;2023-12-14T05:57:07;5.20;99.90
53776;DHT22;44276;49.534;6.378;2023-12-14T05:59:36;5.30;99.90
53776;DHT22;44276;49.534;6.378;2023-12-14T06:02:04;5.40;99.90
53776;DHT22;44276;49.534;6.378;2023-12-14T06:04:33;5.40;99.90
53776;DHT22;44276;49.534;6.378;2023-12-14T06:07:02;5.50;99.90
53776;DHT22;44276;49.534;6.378;2023-12-14T06:09:32;5.50;99.90
53776;DHT22;44276;49.534;6.378;2023-12-14T06:12:04;5.50;99.90
53776;DHT22;44276;49.534;6.378;2023-12-14T06:14:32;5.50;99.90
53776;DHT22;44276;49.534;6.378;2023-12-14T06:17:00;5.50;99.90
53776;DHT22;44276;49.534;6.378;2023-12-14T06:19:29;5.50;99.90
53776;DHT22;44276;49.534;6.378;2023-12-14T06:21:57;5.60;99.90
53776;DHT22;44276;49.534;6.378;2023-12-14T06:24:25;5.50;99.90
53776;DHT22;44276;49.534;6.378;2023-12-14T06:26:55;5.50;99.90
53776;DHT22;44276;49.534;6.378;2023-12-14T06:29:23;5.50;99.90
53776;DHT22;44276;49.534;6.378;2023-12-14T06:31:51;5.50;99.90
53776;DHT22;44276;49.534;6.378;2023-12-14T06:34:20;5.40;99.90
53776;DHT22;44276;49.534;6.378;2023-12-14T06:36:48;5.40;99.90
53776;DHT22;44276;49.534;6.378;2023-12-14T06:39:16;5.30;99.90
53776;DHT22;44276;49.534;6.378;2023-12-14T06:41:46;5.30;99.90
53776;DHT22;44276;49.534;6.378;2023-12-14T06:44:16;5.30;99.90
53776;DHT22;44276;49.534;6.378;2023-12-14T06:46:44;5.30;99.90
53776;DHT22;44276;49.534;6.378;2023-12-14T06:49:12;5.30;99.90
53776;DHT22;44276;49.534;6.378;2023-12-14T06:51:40;5.30;99.90
53776;DHT22;44276;49.534;6.378;2023-12-14T06:54:09;5.30;99.90
53776;DHT22;44276;49.534;6.378;2023-12-14T06:56:37;5.30;99.90
53776;DHT22;44276;49.534;6.378;2023-12-14T06:59:05;5.30;99.90
53776;DHT22;44276;49.534;6.378;2023-12-14T07:01:35;5.40;99.90
53776;DHT22;44276;49.534;6.378;2023-12-14T07:04:03;5.50;99.90
53776;DHT22;44276;49.534;6.378;2023-12-14T07:06:31;5.60;99.90
53776;DHT22;44276;49.534;6.378;2023-12-14T07:09:03;5.60;99.90
53776;DHT22;44276;49.534;6.378;2023-12-14T07:11:32;5.60;99.90
53776;DHT22;44276;49.534;6.378;2023-12-14T07:14:00;5.70;99.90
53776;DHT22;44276;49.534;6.378;2023-12-14T07:16:28;5.70;99.90
53776;DHT22;44276;49.534;6.378;2023-12-14T07:18:58;5.70;99.90
53776;DHT22;44276;49.534;6.378;2023-12-14T07:21:26;5.80;99.90
53776;DHT22;44276;49.534;6.378;2023-12-14T07:23:54;5.70;99.90
53776;DHT22;44276;49.534;6.378;2023-12-14T07:26:22;5.80;99.90
53776;DHT22;44276;49.534;6.378;2023-12-14T07:28:53;5.80;99.90
53776;DHT22;44276;49.534;6.378;2023-12-14T07:31:21;5.80;99.90
53776;DHT22;44276;49.534;6.378;2023-12-14T07:33:49;5.70;99.90
53776;DHT22;44276;49.534;6.378;2023-12-14T07:36:19;5.70;99.90
53776;DHT22;44276;49.534;6.378;2023-12-14T07:38:49;5.70;99.90
53776;DHT22;44276;49.534;6.378;2023-12-14T07:41:21;5.70;99.90
53776;DHT22;44276;49.534;6.378;2023-12-14T07:43:53;5.70;99.90
53776;DHT22;44276;49.534;6.378;2023-12-14T07:46:22;5.70;99.90
53776;DHT22;44276;49.534;6.378;2023-12-14T07:48:50;5.70;99.90
53776;DHT22;44276;49.534;6.378;2023-12-14T07:51:19;5.80;99.90
53776;DHT22;44276;49.534;6.378;2023-12-14T07:53:48;5.80;99.90
53776;DHT22;44276;49.534;6.378;2023-12-14T07:56:16;5.90;99.90
53776;DHT22;44276;49.534;6.378;2023-12-14T07:58:44;5.90;99.90
53776;DHT22;44276;49.534;6.378;2023-12-14T08:01:13;5.90;99.90
53776;DHT22;44276;49.534;6.378;2023-12-14T08:03:41;5.90;99.90
53776;DHT22;44276;49.534;6.378;2023-12-14T08:06:10;5.90;99.90
53776;DHT22;44276;49.534;6.378;2023-12-14T08:08:42;5.90;99.90
53776;DHT22;44276;49.534;6.378;2023-12-14T08:11:11;6.00;99.90
53776;DHT22;44276;49.534;6.378;2023-12-14T08:13:39;6.00;99.90
53776;DHT22;44276;49.534;6.378;2023-12-14T08:16:08;6.00;99.90
53776;DHT22;44276;49.534;6.378;2023-12-14T08:18:38;6.00;99.90
53776;DHT22;44276;49.534;6.378;2023-12-14T08:21:07;6.00;99.90
53776;DHT22;44276;49.534;6.378;2023-12-14T08:23:39;6.10;99.90
53776;DHT22;44276;49.534;6.378;2023-12-14T08:26:08;6.10;99.90
53776;DHT22;44276;49.534;6.378;2023-12-14T08:28:39;6.10;99.90
53776;DHT22;44276;49.534;6.378;2023-12-14T08:31:08;6.10;99.90
53776;DHT22;44276;49.534;6.378;2023-12-14T08:33:41;6.10;99.90
53776;DHT22;44276;49.534;6.378;2023-12-14T08:36:15;6.10;99.90
53776;DHT22;44276;49.534;6.378;2023-12-14T08:38:43;6.20;99.90
53776;DHT22;44276;49.534;6.378;2023-12-14T08:41:13;6.20;99.90
53776;DHT22;44276;49.534;6.378;2023-12-14T08:43:43;6.20;99.90
53776;DHT22;44276;49.534;6.378;2023-12-14T08:46:11;6.20;99.90
53776;DHT22;44276;49.534;6.378;2023-12-14T08:48:39;6.30;99.90
53776;DHT22;44276;49.534;6.378;2023-12-14T08:51:08;6.30;99.90
53776;DHT22;44276;49.534;6.378;2023-12-14T08:53:36;6.30;99.90
53776;DHT22;44276;49.534;6.378;2023-12-14T08:56:05;6.30;99.90
53776;DHT22;44276;49.534;6.378;2023-12-14T08:58:37;6.40;99.90
53776;DHT22;44276;49.534;6.378;2023-12-14T09:01:05;6.50;99.90
53776;DHT22;44276;49.534;6.378;2023-12-14T09:03:34;6.60;99.90
53776;DHT22;44276;49.534;6.378;2023-12-14T09:06:03;6.50;99.90
53776;DHT22;44276;49.534;6.378;2023-12-14T09:08:32;6.60;99.90
53776;DHT22;44276;49.534;6.378;2023-12-14T09:11:00;6.70;99.90
53776;DHT22;44276;49.534;6.378;2023-12-14T09:13:29;6.90;99.90
53776;DHT22;44276;49.534;6.378;2023-12-14T09:15:59;7.00;99.90
53776;DHT22;44276;49.534;6.378;2023-12-14T09:18:27;7.10;99.90
53776;DHT22;44276;49.534;6.378;2023-12-14T09:20:55;7.10;99.90
53776;DHT22;44276;49.534;6.378;2023-12-14T09:23:23;7.20;99.90
53776;DHT22;44276;49.534;6.378;2023-12-14T09:25:52;7.10;99.90
53776;DHT22;44276;49.534;6.378;2023-12-14T09:28:22;7.10;99.90
53776;DHT22;44276;49.534;6.378;2023-12-14T09:30:51;7.30;99.90
53776;DHT22;44276;49.534;6.378;2023-12-14T09:33:21;7.40;99.90
53776;DHT22;44276;49.534;6.378;2023-12-14T09:35:49;7.40;99.90
53776;DHT22;44276;49.534;6.378;2023-12-14T09:38:17;7.50;99.90
53776;DHT22;44276;49.534;6.378;2023-12-14T09:40:46;7.40;99.90
53776;DHT22;44276;49.534;6.378;2023-12-14T09:43:14;7.50;99.90
53776;DHT22;44276;49.534;6.378;2023-12-14T09:45:43;7.60;99.90
53776;DHT22;44276;49.534;6.378;2023-12-14T09:48:16;7.80;99.90
53776;DHT22;44276;49.534;6.378;2023-12-14T09:50:46;8.10;99.90
53776;DHT22;44276;49.534;6.378;2023-12-14T09:53:15;8.20;99.90
53776;DHT22;44276;49.534;6.378;2023-12-14T09:55:43;8.20;99.90
53776;DHT22;44276;49.534;6.378;2023-12-14T09:58:11;8.10;99.90
53776;DHT22;44276;49.534;6.378;2023-12-14T10:00:40;8.10;99.90
53776;DHT22;44276;49.534;6.378;2023-12-14T10:03:20;8.10;99.90
53776;DHT22;44276;49.534;6.378;2023-12-14T10:05:51;8.20;99.90
53776;DHT22;44276;49.534;6.378;2023-12-14T10:08:21;8.30;99.90
53776;DHT22;44276;49.534;6.378;2023-12-14T10:10:51;8.50;99.90
53776;DHT22;44276;49.534;6.378;2023-12-14T10:13:35;8.70;99.90
53776;DHT22;44276;49.534;6.378;2023-12-14T10:16:05;8.80;99.90
53776;DHT22;44276;49.534;6.378;2023-12-14T10:18:33;8.70;99.90
53776;DHT22;44276;49.534;6.378;2023-12-14T10:21:06;8.70;99.90
53776;DHT22;44276;49.534;6.378;2023-12-14T10:23:35;8.80;99.90
53776;DHT22;44276;49.534;6.378;2023-12-14T10:26:04;8.80;99.90
53776;DHT22;44276;49.534;6.378;2023-12-14T10:28:33;9.00;99.90
53776;DHT22;44276;49.534;6.378;2023-12-14T10:31:01;9.20;99.90
53776;DHT22;44276;49.534;6.378;2023-12-14T10:33:32;9.90;99.90
53776;DHT22;44276;49.534;6.378;2023-12-14T10:36:01;10.80;99.90
53776;DHT22;44276;49.534;6.378;2023-12-14T10:38:34;11.70;99.90
53776;DHT22;44276;49.534;6.378;2023-12-14T10:41:06;12.70;99.90
53776;DHT22;44276;49.534;6.378;2023-12-14T10:43:36;13.80;99.90
53776;DHT22;44276;49.534;6.378;2023-12-14T10:46:16;14.80;99.90
53776;DHT22;44276;49.534;6.378;2023-12-14T10:48:45;16.00;99.90
53776;DHT22;44276;49.534;6.378;2023-12-14T10:51:15;17.20;99.90
53776;DHT22;44276;49.534;6.378;2023-12-14T10:53:47;18.50;81.70
53776;DHT22;44276;49.534;6.378;2023-12-14T10:56:16;18.90;57.80
53776;DHT22;44276;49.534;6.378;2023-12-14T10:58:46;19.30;49.90
53776;DHT22;44276;49.534;6.378;2023-12-14T11:01:16;18.40;58.60
53776;DHT22;44276;49.534;6.378;2023-12-14T11:03:47;18.70;52.00
53776;DHT22;44276;49.534;6.378;2023-12-14T11:06:30;18.90;44.60
53776;DHT22;44276;49.534;6.378;2023-12-14T11:09:05;17.60;43.90
53776;DHT22;44276;49.534;6.378;2023-12-14T11:11:42;15.50;51.80
53776;DHT22;44276;49.534;6.378;2023-12-14T11:14:17;13.60;73.50
53776;DHT22;44276;49.534;6.378;2023-12-14T11:16:49;12.20;96.20
53776;DHT22;44276;49.534;6.378;2023-12-14T11:19:29;11.40;99.90
53776;DHT22;44276;49.534;6.378;2023-12-14T11:22:22;11.00;99.90
53776;DHT22;44276;49.534;6.378;2023-12-14T11:25:11;10.90;99.90
53776;DHT22;44276;49.534;6.378;2023-12-14T11:27:54;11.40;99.90
53776;DHT22;44276;49.534;6.378;2023-12-14T11:31:10;11.70;99.90
53776;DHT22;44276;49.534;6.378;2023-12-14T11:33:47;11.40;99.70
53776;DHT22;44276;49.534;6.378;2023-12-14T11:36:33;11.10;99.90
53776;DHT22;44276;49.534;6.378;2023-12-14T11:39:10;10.60;99.90
53776;DHT22;44276;49.534;6.378;2023-12-14T11:42:00;10.20;99.90
53776;DHT22;44276;49.534;6.378;2023-12-14T11:44:30;9.80;99.90
53776;DHT22;44276;49.534;6.378;2023-12-14T11:47:01;9.60;99.90
53776;DHT22;44276;49.534;6.378;2023-12-14T11:49:30;9.60;99.90
53776;DHT22;44276;49.534;6.378;2023-12-14T11:52:02;9.70;99.90
53776;DHT22;44276;49.534;6.378;2023-12-14T11:54:32;9.80;99.90
53776;DHT22;44276;49.534;6.378;2023-12-14T11:57:04;9.80;99.90
53776;DHT22;44276;49.534;6.378;2023-12-14T11:59:37;10.00;99.90
53776;DHT22;44276;49.534;6.378;2023-12-14T12:02:07;10.00;99.90
53776;DHT22;44276;49.534;6.378;2023-12-14T12:04:38;9.70;99.90
53776;DHT22;44276;49.534;6.378;2023-12-14T12:07:18;9.50;99.90
53776;DHT22;44276;49.534;6.378;2023-12-14T12:09:48;9.40;99.90
53776;DHT22;44276;49.534;6.378;2023-12-14T12:12:21;9.30;99.90
53776;DHT22;44276;49.534;6.378;2023-12-14T12:14:50;9.20;99.90
53776;DHT22;44276;49.534;6.378;2023-12-14T12:17:21;9.20;99.90
53776;DHT22;44276;49.534;6.378;2023-12-14T12:19:50;9.20;99.90
53776;DHT22;44276;49.534;6.378;2023-12-14T12:22:23;9.20;99.90
53776;DHT22;44276;49.534;6.378;2023-12-14T12:24:52;9.50;99.90
53776;DHT22;44276;49.534;6.378;2023-12-14T12:27:39;10.10;99.90
53776;DHT22;44276;49.534;6.378;2023-12-14T12:30:10;10.60;93.80
53776;DHT22;44276;49.534;6.378;2023-12-14T12:32:38;10.70;90.60
53776;DHT22;44276;49.534;6.378;2023-12-14T12:35:07;10.60;76.80
53776;DHT22;44276;49.534;6.378;2023-12-14T12:37:40;10.20;81.90
53776;DHT22;44276;49.534;6.378;2023-12-14T12:40:10;9.80;87.70
53776;DHT22;44276;49.534;6.378;2023-12-14T12:42:42;9.50;95.40
53776;DHT22;44276;49.534;6.378;2023-12-14T12:45:14;9.30;99.70
53776;DHT22;44276;49.534;6.378;2023-12-14T12:47:44;8.90;99.90
53776;DHT22;44276;49.534;6.378;2023-12-14T12:50:13;8.70;99.90
53776;DHT22;44276;49.534;6.378;2023-12-14T12:52:42;8.50;99.90
53776;DHT22;44276;49.534;6.378;2023-12-14T12:55:16;8.40;99.90
53776;DHT22;44276;49.534;6.378;2023-12-14T12:57:48;8.30;99.90
53776;DHT22;44276;49.534;6.378;2023-12-14T13:00:17;8.20;99.90
53776;DHT22;44276;49.534;6.378;2023-12-14T13:02:48;8.00;99.90
53776;DHT22;44276;49.534;6.378;2023-12-14T13:05:16;7.90;99.90
53776;DHT22;44276;49.534;6.378;2023-12-14T13:07:46;7.90;99.90
53776;DHT22;44276;49.534;6.378;2023-12-14T13:10:15;7.80;99.90
53776;DHT22;44276;49.534;6.378;2023-12-14T13:12:59;7.80;99.90
53776;DHT22;44276;49.534;6.378;2023-12-14T13:15:29;7.70;99.90
53776;DHT22;44276;49.534;6.378;2023-12-14T13:17:58;7.60;99.90
53776;DHT22;44276;49.534;6.378;2023-12-14T13:20:26;7.60;99.90
53776;DHT22;44276;49.534;6.378;2023-12-14T13:22:55;7.60;99.90
53776;DHT22;44276;49.534;6.378;2023-12-14T13:25:23;7.60;99.90
53776;DHT22;44276;49.534;6.378;2023-12-14T13:27:54;7.60;99.90
53776;DHT22;44276;49.534;6.378;2023-12-14T13:30:25;7.60;99.90
53776;DHT22;44276;49.534;6.378;2023-12-14T13:32:53;7.60;99.90
53776;DHT22;44276;49.534;6.378;2023-12-14T13:35:22;7.50;99.90
53776;DHT22;44276;49.534;6.378;2023-12-14T13:37:52;7.50;99.90
53776;DHT22;44276;49.534;6.378;2023-12-14T13:40:20;7.50;99.90
53776;DHT22;44276;49.534;6.378;2023-12-14T13:42:48;7.50;99.90
53776;DHT22;44276;49.534;6.378;2023-12-14T13:45:33;7.40;99.90
53776;DHT22;44276;49.534;6.378;2023-12-14T13:48:03;7.40;99.90
53776;DHT22;44276;49.534;6.378;2023-12-14T13:50:33;7.30;99.90
53776;DHT22;44276;49.534;6.378;2023-12-14T13:53:02;7.30;99.90
53776;DHT22;44276;49.534;6.378;2023-12-14T13:55:31;7.30;99.90
53776;DHT22;44276;49.534;6.378;2023-12-14T13:58:00;7.20;99.90
53776;DHT22;44276;49.534;6.378;2023-12-14T14:00:29;7.20;99.90
53776;DHT22;44276;49.534;6.378;2023-12-14T14:02:59;7.10;99.90
53776;DHT22;44276;49.534;6.378;2023-12-14T14:05:30;7.10;99.90
53776;DHT22;44276;49.534;6.378;2023-12-14T14:07:59;7.10;99.90
53776;DHT22;44276;49.534;6.378;2023-12-14T14:10:28;7.10;99.90
53776;DHT22;44276;49.534;6.378;2023-12-14T14:12:57;7.10;99.90
53776;DHT22;44276;49.534;6.378;2023-12-14T14:15:26;7.10;99.90
53776;DHT22;44276;49.534;6.378;2023-12-14T14:17:55;7.10;99.90
53776;DHT22;44276;49.534;6.378;2023-12-14T14:20:33;7.10;99.90
53776;DHT22;44276;49.534;6.378;2023-12-14T14:23:04;7.10;99.90
53776;DHT22;44276;49.534;6.378;2023-12-14T14:25:32;7.10;99.90
53776;DHT22;44276;49.534;6.378;2023-12-14T14:28:02;7.00;99.90
53776;DHT22;44276;49.534;6.378;2023-12-14T14:30:32;7.00;99.90
53776;DHT22;44276;49.534;6.378;2023-12-14T14:33:01;7.00;99.90
53776;DHT22;44276;49.534;6.378;2023-12-14T14:35:31;7.10;99.90
53776;DHT22;44276;49.534;6.378;2023-12-14T14:38:04;7.00;99.90
53776;DHT22;44276;49.534;6.378;2023-12-14T14:40:33;7.10;99.90
53776;DHT22;44276;49.534;6.378;2023-12-14T14:43:01;7.00;99.90
53776;DHT22;44276;49.534;6.378;2023-12-14T14:45:30;7.00;99.90
53776;DHT22;44276;49.534;6.378;2023-12-14T14:48:07;7.00;99.90
53776;DHT22;44276;49.534;6.378;2023-12-14T14:50:38;7.00;99.90
53776;DHT22;44276;49.534;6.378;2023-12-14T14:53:06;7.00;99.90
53776;DHT22;44276;49.534;6.378;2023-12-14T14:55:35;6.90;99.90
53776;DHT22;44276;49.534;6.378;2023-12-14T14:58:04;7.00;99.90
53776;DHT22;44276;49.534;6.378;2023-12-14T15:00:32;6.90;99.90
53776;DHT22;44276;49.534;6.378;2023-12-14T15:03:05;6.90;99.90
53776;DHT22;44276;49.534;6.378;2023-12-14T15:05:39;6.90;99.90
53776;DHT22;44276;49.534;6.378;2023-12-14T15:08:12;7.00;99.90
53776;DHT22;44276;49.534;6.378;2023-12-14T15:10:41;6.90;99.90
53776;DHT22;44276;49.534;6.378;2023-12-14T15:13:10;6.90;99.90
53776;DHT22;44276;49.534;6.378;2023-12-14T15:15:44;6.90;99.90
53776;DHT22;44276;49.534;6.378;2023-12-14T15:18:14;6.90;99.90
53776;DHT22;44276;49.534;6.378;2023-12-14T15:20:45;6.80;99.90
53776;DHT22;44276;49.534;6.378;2023-12-14T15:23:15;6.90;99.90
53776;DHT22;44276;49.534;6.378;2023-12-14T15:25:44;6.80;99.90
53776;DHT22;44276;49.534;6.378;2023-12-14T15:28:13;6.80;99.90
53776;DHT22;44276;49.534;6.378;2023-12-14T15:30:41;6.80;99.90
53776;DHT22;44276;49.534;6.378;2023-12-14T15:33:10;6.70;99.90
53776;DHT22;44276;49.534;6.378;2023-12-14T15:35:38;6.70;99.90
53776;DHT22;44276;49.534;6.378;2023-12-14T15:38:08;6.70;99.90
53776;DHT22;44276;49.534;6.378;2023-12-14T15:40:38;6.70;99.90
53776;DHT22;44276;49.534;6.378;2023-12-14T15:43:08;6.60;99.90
53776;DHT22;44276;49.534;6.378;2023-12-14T15:45:36;6.60;99.90
53776;DHT22;44276;49.534;6.378;2023-12-14T15:48:06;6.50;99.90
53776;DHT22;44276;49.534;6.378;2023-12-14T15:50:36;6.50;99.90
53776;DHT22;44276;49.534;6.378;2023-12-14T15:53:06;6.50;99.90
53776;DHT22;44276;49.534;6.378;2023-12-14T15:55:39;6.50;99.90
53776;DHT22;44276;49.534;6.378;2023-12-14T15:58:08;6.60;99.90
53776;DHT22;44276;49.534;6.378;2023-12-14T16:00:38;6.50;99.90
53776;DHT22;44276;49.534;6.378;2023-12-14T16:03:07;6.50;99.90